EST,Max TemperatureF,Mean TemperatureF,Min TemperatureF,Max Dew PointF,MeanDew PointF,Min DewpointF,Max Humidity, Mean Humidity, Min Humidity, Max Sea Level PressureIn, Mean Sea Level PressureIn, Min Sea Level PressureIn, Max VisibilityMiles, Mean VisibilityMiles, Min VisibilityMiles, Max Wind SpeedMPH, Mean Wind SpeedMPH, Max Gust SpeedMPH,PrecipitationIn, CloudCover, Events, WindDirDegrees
2013-2-1,41,34,24,27,12,2,62,40,20,30.41,30.19,29.92,10,10,10,21,9,29,0.00,0,,281
2013-2-2,44,31,18,35,13,5,79,47,23,30.43,30.27,30.05,10,10,10,10,4,18,0.00,2,Rain,172
2013-2-3,48,42,28,37,30,23,89,65,37,30.04,29.95,29.86,10,10,10,13,7,20,0.01,5,Rain,267
2013-2-4,46,35,24,26,22,19,85,54,37,30.16,30.07,30.01,10,10,10,8,3,,0.00,0,,214
2013-2-5,61,49,37,34,31,27,83,58,32,30.01,29.95,29.88,10,10,10,14,6,20,0.00,2,,211
2013-2-6,63,48,32,35,30,23,92,60,22,30.30,30.14,29.98,10,10,6,9,2,,0.00,0,,356
2013-2-7,53,44,34,43,38,31,93,79,58,30.34,30.20,29.99,10,7,3,14,8,21,0.38,4,Rain,43
2013-2-8,55,49,43,43,40,27,96,76,52,30.02,29.85,29.75,10,9,4,23,15,30,0.86,5,Rain,316
2013-2-9,52,40,28,27,21,15,85,50,23,30.37,30.23,30.04,10,10,10,15,7,21,0.00,0,,307
2013-2-10,53,38,24,36,24,20,89,60,30,30.50,30.40,30.26,10,10,9,7,1,,0.00,1,,96
2013-2-11,63,54,46,61,53,40,100,87,79,30.23,30.04,29.92,10,8,3,13,6,24,0.03,6,Rain,195
2013-2-12,62,55,48,52,36,23,84,55,22,30.08,29.99,29.92,10,10,10,9,6,,0.00,1,,280
2013-2-13,50,47,44,47,44,38,100,90,71,29.96,29.76,29.62,10,6,2,14,3,26,0.55,7,Rain,223
2013-2-14,48,39,30,36,34,29,96,77,56,30.08,30.01,29.85,10,8,1,7,2,17,0.00,1,,248
2013-2-15,61,44,28,38,31,27,100,81,31,30.10,30.05,29.94,10,4,0,6,0,,0.00,0,Fog,179
2013-2-16,44,38,33,36,32,30,93,84,63,29.96,29.87,29.81,10,6,1,14,8,20,0.26,7,Rain-Snow,343
2013-2-17,36,32,23,30,16,7,87,58,30,30.27,30.07,29.89,10,10,10,21,10,31,0.00,2,,292
2013-2-18,39,28,18,25,17,13,84,72,53,30.44,30.35,30.29,10,10,10,8,1,,0.00,0,,187
2013-2-19,55,42,30,51,40,24,93,80,60,30.26,30.01,29.85,10,9,3,17,7,29,0.02,4,Rain,207
2013-2-20,52,44,35,38,19,12,79,42,21,30.14,30.05,29.96,10,10,10,14,8,20,0.00,0,,282
2013-2-21,53,40,26,22,18,14,75,44,25,30.29,30.19,30.12,10,10,10,12,5,16,0.00,0,,358
2013-2-22,41,36,32,37,32,18,93,80,41,30.37,30.25,30.16,10,7,2,8,4,,0.24,8,Rain,35
2013-2-23,45,42,39,43,40,37,93,92,89,30.10,29.93,29.82,10,6,2,9,5,,0.60,8,Rain,333
2013-2-24,62,50,39,46,41,27,93,79,35,30.04,29.87,29.78,10,7,2,12,4,16,0.16,5,Rain-Thunderstorm,292
2013-2-25,43,38,33,30,22,20,62,52,42,30.23,30.17,30.08,10,10,10,17,11,24,0.00,0,,28
2013-2-26,62,53,44,61,54,42,100,91,69,30.16,29.77,29.58,10,5,0,12,7,21,0.80,7,Fog-Rain,108
2013-2-27,60,50,41,45,40,37,90,72,42,29.78,29.71,29.62,10,10,10,14,7,22,0.00,1,,222
2013-2-28,48,41,34,37,30,25,96,64,42,29.84,29.76,29.70,10,10,7,12,5,20,0.00,4,,271